Time;durP1;ratioP1;P1;durP2;ratioP2;P2;SDS_P1;SDS_P2;PMS_P1;PMS_P2;Temp;Humidity;BMP_temperature;BMP_pressure;BME280_temperature;BME280_humidity;BME280_pressure;Samples;Min_cycle;Max_cycle;Signal;HPM_P1;HPM_P2
2022/08/01 05:06:12;;;;;;;4.85;2.40;;;;;;;;;;515167;28;1910;-85
2022/08/01 05:06:28;;;;;;;5.10;2.40;;;;;;;;;;514022;28;2196;-85
2022/08/01 05:06:43;;;;;;;4.97;2.30;;;;;;;;;;514123;28;1454;-85
2022/08/01 05:06:58;;;;;;;4.03;2.30;;;;;;;;;;513605;28;2074;-85
2022/08/01 05:07:15;;;;;;;4.23;2.30;;;;;;;;;;514238;28;1728;-85
2022/08/01 05:07:30;;;;;;;5.72;2.50;;;;;;;;;;515015;28;1787;-85
2022/08/01 05:07:46;;;;;;;5.20;2.47;;;;;;;;;;513433;28;1158;-85
2022/08/01 05:08:01;;;;;;;3.77;2.33;;;;;;;;;;511963;29;1185;-85
2022/08/01 05:08:17;;;;;;;3.97;2.58;;;;;;;;;;509956;28;1191;-85
2022/08/01 05:08:32;;;;;;;3.83;2.53;;;;;;;;;;507758;29;1927;-85
2022/08/01 05:08:48;;;;;;;3.90;2.33;;;;;;;;;;508624;29;2067;-85
2022/08/01 05:09:03;;;;;;;3.50;2.30;;;;;;;;;;511750;28;1141;-85
2022/08/01 05:09:18;;;;;;;2.67;2.43;;;;;;;;;;513851;28;2138;-85
2022/08/01 05:09:35;;;;;;;3.55;2.42;;;;;;;;;;510663;29;1192;-85
2022/08/01 05:09:51;;;;;;;3.95;2.20;;;;;;;;;;510052;29;857;-85
2022/08/01 05:10:07;;;;;;;4.33;2.40;;;;;;;;;;510355;28;1991;-85
2022/08/01 05:10:22;;;;;;;5.82;2.70;;;;;;;;;;512393;28;1013;-85
2022/08/01 05:10:38;;;;;;;4.85;2.70;;;;;;;;;;513311;28;2169;-85
2022/08/01 05:10:53;;;;;;;3.77;2.50;;;;;;;;;;511794;29;2029;-85
2022/08/01 05:11:08;;;;;;;3.05;2.20;;;;;;;;;;513120;28;2210;-85
2022/08/01 05:11:24;;;;;;;2.50;2.07;;;;;;;;;;511947;29;1778;-85
2022/08/01 05:11:39;;;;;;;4.23;2.30;;;;;;;;;;512100;29;1235;-85
2022/08/01 05:11:58;;;;;;;5.10;2.55;;;;;;;;;;510795;29;2031;-85
2022/08/01 05:12:13;;;;;;;4.57;2.58;;;;;;;;;;508737;29;1988;-85
2022/08/01 05:12:28;;;;;;;4.87;2.50;;;;;;;;;;510069;29;1349;-85
2022/08/01 05:12:44;;;;;;;4.45;2.50;;;;;;;;;;510073;29;881;-85
2022/08/01 05:12:59;;;;;;;3.60;2.50;;;;;;;;;;512061;29;1289;-85
2022/08/01 05:13:15;;;;;;;3.67;2.40;;;;;;;;;;509790;29;2080;-84
2022/08/01 05:13:30;;;;;;;4.33;2.70;;;;;;;;;;511654;29;2046;-83
2022/08/01 05:13:46;;;;;;;4.22;2.90;;;;;;;;;;511757;29;2113;-83
2022/08/01 05:14:01;;;;;;;4.50;2.70;;;;;;;;;;510016;29;1198;-84
2022/08/01 05:14:16;;;;;;;4.37;2.50;;;;;;;;;;510345;29;2075;-84
2022/08/01 05:14:32;;;;;;;3.78;2.47;;;;;;;;;;510013;29;2099;-84
2022/08/01 05:14:48;;;;;;;3.95;2.50;;;;;;;;;;507520;29;2132;-84
2022/08/01 05:15:04;;;;;;;4.13;2.50;;;;;;;;;;506133;29;1296;-84
2022/08/01 05:15:19;;;;;;;3.63;2.40;;;;;;;;;;507781;29;2113;-84
2022/08/01 05:15:36;;;;;;;3.40;2.50;;;;;;;;;;505738;29;1982;-84
2022/08/01 05:15:52;;;;;;;3.35;2.60;;;;;;;;;;507581;29;2041;-84
2022/08/01 05:16:07;;;;;;;3.92;2.53;;;;;;;;;;507534;29;1818;-84
2022/08/01 05:16:23;;;;;;;5.47;2.60;;;;;;;;;;510015;29;1368;-84
2022/08/01 05:16:38;;;;;;;5.73;2.83;;;;;;;;;;508370;29;1186;-84
2022/08/01 05:16:54;;;;;;;4.47;2.87;;;;;;;;;;509444;29;1842;-84
2022/08/01 05:17:09;;;;;;;4.90;2.85;;;;;;;;;;509786;29;1237;-84
2022/08/01 05:17:25;;;;;;;4.65;2.75;;;;;;;;;;511862;29;2150;-84
2022/08/01 05:17:42;;;;;;;4.47;2.70;;;;;;;;;;510614;29;762;-84
2022/08/01 05:17:57;;;;;;;5.35;2.80;;;;;;;;;;511210;29;2111;-84
2022/08/01 05:18:12;;;;;;;5.53;3.00;;;;;;;;;;510167;29;833;-84
2022/08/01 05:18:28;;;;;;;5.40;2.90;;;;;;;;;;509796;29;1964;-84
2022/08/01 05:18:43;;;;;;;4.83;2.83;;;;;;;;;;510211;29;802;-84
2022/08/01 05:18:59;;;;;;;4.23;3.00;;;;;;;;;;512401;28;2127;-84
2022/08/01 05:19:14;;;;;;;4.05;2.80;;;;;;;;;;512020;28;2047;-84
2022/08/01 05:19:31;;;;;;;5.43;2.90;;;;;;;;;;510582;29;1206;-84
2022/08/01 05:19:47;;;;;;;5.38;2.90;;;;;;;;;;512340;28;2047;-84
2022/08/01 05:20:02;;;;;;;3.65;2.60;;;;;;;;;;513221;28;1193;-84
2022/08/01 05:20:18;;;;;;;4.30;2.90;;;;;;;;;;513169;28;1991;-85
2022/08/01 05:20:33;;;;;;;4.07;3.00;;;;;;;;;;514086;28;1345;-85
2022/08/01 05:20:49;;;;;;;4.53;2.87;;;;;;;;;;513459;28;2066;-84
2022/08/01 05:21:04;;;;;;;6.45;3.10;;;;;;;;;;509867;29;1420;-84
2022/08/01 05:21:20;;;;;;;5.85;3.10;;;;;;;;;;510023;29;735;-84
2022/08/01 05:21:37;;;;;;;4.93;3.07;;;;;;;;;;512653;28;2151;-84
2022/08/01 05:21:52;;;;;;;5.20;3.03;;;;;;;;;;509444;29;1948;-84
2022/08/01 05:22:09;;;;;;;5.30;2.80;;;;;;;;;;506625;29;2090;-84
2022/08/01 05:22:25;;;;;;;4.93;2.70;;;;;;;;;;508672;29;1503;-84
2022/08/01 05:22:40;;;;;;;4.20;2.75;;;;;;;;;;510124;29;857;-84
2022/08/01 05:22:57;;;;;;;4.57;2.90;;;;;;;;;;508633;29;2354;-84
2022/08/01 05:23:12;;;;;;;5.00;3.00;;;;;;;;;;510057;29;892;-84
2022/08/01 05:23:27;;;;;;;4.37;2.80;;;;;;;;;;508010;29;1901;-84
2022/08/01 05:23:43;;;;;;;4.13;2.70;;;;;;;;;;507888;29;1139;-84
2022/08/01 05:23:58;;;;;;;4.65;2.83;;;;;;;;;;508322;29;2048;-84
2022/08/01 05:24:13;;;;;;;3.77;2.80;;;;;;;;;;509775;29;1961;-84
2022/08/01 05:24:32;;;;;;;3.13;2.77;;;;;;;;;;509807;29;2098;-84
2022/08/01 05:24:47;;;;;;;3.30;2.55;;;;;;;;;;507099;29;1463;-84
2022/08/01 05:25:04;;;;;;;3.67;2.67;;;;;;;;;;507724;29;1409;-84
2022/08/01 05:25:20;;;;;;;3.53;2.70;;;;;;;;;;508813;29;869;-84
2022/08/01 05:25:36;;;;;;;4.32;2.60;;;;;;;;;;508331;29;2020;-84
2022/08/01 05:25:51;;;;;;;4.38;2.53;;;;;;;;;;509481;29;1688;-84
2022/08/01 05:26:07;;;;;;;3.63;2.50;;;;;;;;;;511776;29;1802;-84
2022/08/01 05:26:23;;;;;;;4.93;2.78;;;;;;;;;;510024;29;1306;-85
2022/08/01 05:26:39;;;;;;;6.07;2.80;;;;;;;;;;508983;29;2092;-84
2022/08/01 05:26:56;;;;;;;5.40;2.60;;;;;;;;;;510442;29;2268;-84
2022/08/01 05:27:11;;;;;;;6.07;2.78;;;;;;;;;;508850;29;2009;-84
2022/08/01 05:27:26;;;;;;;4.55;2.70;;;;;;;;;;508619;29;1902;-84
2022/08/01 05:27:42;;;;;;;4.00;2.50;;;;;;;;;;509825;29;1344;-84
2022/08/01 05:27:57;;;;;;;4.20;2.50;;;;;;;;;;507869;29;2104;-84
2022/08/01 05:28:13;;;;;;;4.33;2.70;;;;;;;;;;509359;29;2036;-84
2022/08/01 05:28:28;;;;;;;5.03;2.80;;;;;;;;;;510462;28;1916;-86
2022/08/01 05:28:43;;;;;;;4.53;2.63;;;;;;;;;;511816;29;920;-85
2022/08/01 05:28:59;;;;;;;3.83;2.60;;;;;;;;;;509668;29;2075;-85
2022/08/01 05:29:15;;;;;;;5.53;2.53;;;;;;;;;;511056;28;2083;-85
2022/08/01 05:29:31;;;;;;;5.45;2.50;;;;;;;;;;508707;29;1691;-85
2022/08/01 05:29:46;;;;;;;3.60;2.70;;;;;;;;;;509954;29;2043;-85
2022/08/01 05:30:02;;;;;;;4.57;2.70;;;;;;;;;;509675;29;1300;-84
2022/08/01 05:30:17;;;;;;;5.35;2.53;;;;;;;;;;507783;29;2056;-85
2022/08/01 05:30:33;;;;;;;5.07;2.50;;;;;;;;;;507975;29;896;-85
2022/08/01 05:30:48;;;;;;;5.53;2.50;;;;;;;;;;509123;29;889;-85
2022/08/01 05:31:03;;;;;;;5.03;2.50;;;;;;;;;;508447;29;1035;-85
2022/08/01 05:31:19;;;;;;;4.50;2.60;;;;;;;;;;507192;29;1218;-85
2022/08/01 05:31:34;;;;;;;3.80;2.50;;;;;;;;;;511083;28;2052;-84
2022/08/01 05:31:51;;;;;;;4.28;2.30;;;;;;;;;;513159;28;1947;-84
2022/08/01 05:32:06;;;;;;;3.90;2.20;;;;;;;;;;511850;28;1994;-85
2022/08/01 05:32:21;;;;;;;2.87;2.30;;;;;;;;;;511990;29;1071;-85
2022/08/01 05:32:37;;;;;;;3.25;2.40;;;;;;;;;;511824;29;2238;-85
2022/08/01 05:32:53;;;;;;;3.63;2.20;;;;;;;;;;509865;29;2052;-85
2022/08/01 05:33:08;;;;;;;4.40;2.23;;;;;;;;;;510055;29;1874;-84
2022/08/01 05:33:23;;;;;;;4.80;2.45;;;;;;;;;;511670;29;1019;-84
2022/08/01 05:33:39;;;;;;;4.47;2.43;;;;;;;;;;508214;29;1016;-84
2022/08/01 05:33:55;;;;;;;3.50;2.30;;;;;;;;;;506156;29;2086;-84
2022/08/01 05:34:10;;;;;;;5.13;2.38;;;;;;;;;;508769;29;1982;-85
2022/08/01 05:34:26;;;;;;;5.47;2.50;;;;;;;;;;510123;29;2135;-85
2022/08/01 05:34:42;;;;;;;3.67;2.33;;;;;;;;;;509995;29;1473;-85
2022/08/01 05:34:57;;;;;;;4.17;2.20;;;;;;;;;;509176;29;1981;-85
2022/08/01 05:35:13;;;;;;;3.70;2.20;;;;;;;;;;508006;29;2020;-84
2022/08/01 05:35:28;;;;;;;3.03;2.17;;;;;;;;;;505985;29;2064;-84
2022/08/01 05:35:43;;;;;;;2.92;2.20;;;;;;;;;;506479;29;1325;-84
2022/08/01 05:35:59;;;;;;;3.30;2.13;;;;;;;;;;507923;29;1385;-84
2022/08/01 05:36:14;;;;;;;3.10;2.00;;;;;;;;;;507957;29;2074;-84
2022/08/01 05:36:30;;;;;;;2.25;1.90;;;;;;;;;;508401;29;1928;-84
2022/08/01 05:36:45;;;;;;;2.20;1.80;;;;;;;;;;511728;29;2119;-84
2022/08/01 05:37:01;;;;;;;2.13;1.80;;;;;;;;;;509834;29;1172;-84
2022/08/01 05:37:16;;;;;;;2.60;1.90;;;;;;;;;;511266;29;1980;-84
2022/08/01 05:37:32;;;;;;;3.28;2.00;;;;;;;;;;511865;29;2047;-84
2022/08/01 05:37:47;;;;;;;3.23;2.00;;;;;;;;;;513920;28;2074;-84
2022/08/01 05:38:02;;;;;;;4.57;2.10;;;;;;;;;;513959;28;868;-85
2022/08/01 05:38:18;;;;;;;4.65;2.20;;;;;;;;;;513701;28;2423;-85
2022/08/01 05:38:33;;;;;;;3.77;2.20;;;;;;;;;;509859;29;2064;-85
2022/08/01 05:38:49;;;;;;;4.10;2.17;;;;;;;;;;510136;29;2120;-85
2022/08/01 05:39:04;;;;;;;3.15;1.98;;;;;;;;;;511970;29;1178;-85
2022/08/01 05:39:20;;;;;;;2.50;1.80;;;;;;;;;;509718;29;2147;-85
2022/08/01 05:39:35;;;;;;;3.33;1.70;;;;;;;;;;508309;29;2148;-85
2022/08/01 05:39:50;;;;;;;3.63;1.60;;;;;;;;;;508746;29;817;-84
2022/08/01 05:40:06;;;;;;;2.47;1.47;;;;;;;;;;509991;29;2103;-85
2022/08/01 05:40:22;;;;;;;2.30;1.50;;;;;;;;;;510349;29;1248;-86
2022/08/01 05:40:37;;;;;;;2.38;1.50;;;;;;;;;;508232;29;1681;-85
2022/08/01 05:40:52;;;;;;;2.47;1.40;;;;;;;;;;507112;29;1934;-85
2022/08/01 05:41:08;;;;;;;2.73;1.47;;;;;;;;;;508148;29;1347;-85
2022/08/01 05:41:23;;;;;;;2.30;1.40;;;;;;;;;;507905;29;1224;-85
2022/08/01 05:41:39;;;;;;;2.30;1.40;;;;;;;;;;508095;29;2046;-85
2022/08/01 05:41:55;;;;;;;1.88;1.33;;;;;;;;;;504162;29;2046;-85
2022/08/01 05:42:10;;;;;;;2.40;1.40;;;;;;;;;;505817;29;1864;-85
2022/08/01 05:42:26;;;;;;;2.93;1.37;;;;;;;;;;507924;29;1445;-85
2022/08/01 05:42:41;;;;;;;2.13;1.30;;;;;;;;;;508577;29;818;-85
2022/08/01 05:42:56;;;;;;;2.73;1.40;;;;;;;;;;507706;29;2037;-85
2022/08/01 05:43:11;;;;;;;3.57;1.40;;;;;;;;;;509013;29;2013;-85
2022/08/01 05:43:27;;;;;;;3.27;1.50;;;;;;;;;;511763;29;2004;-85
2022/08/01 05:43:42;;;;;;;2.83;1.52;;;;;;;;;;509902;29;1208;-85
2022/08/01 05:43:58;;;;;;;2.97;1.43;;;;;;;;;;507868;29;1958;-85
2022/08/01 05:44:13;;;;;;;2.13;1.42;;;;;;;;;;507884;29;2014;-85
2022/08/01 05:44:28;;;;;;;2.13;1.30;;;;;;;;;;507897;29;2081;-85
2022/08/01 05:44:44;;;;;;;3.07;1.20;;;;;;;;;;508181;29;1205;-85
2022/08/01 05:44:59;;;;;;;2.35;1.27;;;;;;;;;;509736;29;2033;-85
2022/08/01 05:45:15;;;;;;;1.60;1.30;;;;;;;;;;510980;29;1928;-85
2022/08/01 05:45:31;;;;;;;1.80;1.33;;;;;;;;;;509807;29;1934;-84
2022/08/01 05:45:46;;;;;;;1.65;1.30;;;;;;;;;;509947;29;2091;-85
2022/08/01 05:46:02;;;;;;;1.73;1.20;;;;;;;;;;509589;29;1551;-85
2022/08/01 05:46:17;;;;;;;2.58;1.30;;;;;;;;;;507875;29;2010;-85
2022/08/01 05:46:34;;;;;;;2.80;1.30;;;;;;;;;;508583;29;869;-85
2022/08/01 05:46:49;;;;;;;2.35;1.30;;;;;;;;;;510185;29;1913;-84
2022/08/01 05:47:05;;;;;;;1.63;1.30;;;;;;;;;;509844;29;1151;-84
2022/08/01 05:47:20;;;;;;;1.75;1.25;;;;;;;;;;508538;29;1266;-84
2022/08/01 05:47:36;;;;;;;1.70;1.40;;;;;;;;;;511445;29;2080;-84
2022/08/01 05:47:51;;;;;;;1.85;1.50;;;;;;;;;;511880;29;2168;-85
2022/08/01 05:48:07;;;;;;;1.87;1.57;;;;;;;;;;511870;29;2107;-85
2022/08/01 05:48:22;;;;;;;2.33;1.47;;;;;;;;;;511965;28;1157;-85
2022/08/01 05:48:38;;;;;;;2.60;1.38;;;;;;;;;;509648;29;2100;-84
2022/08/01 05:48:53;;;;;;;1.97;1.30;;;;;;;;;;509855;29;2131;-84
2022/08/01 05:49:09;;;;;;;1.67;1.38;;;;;;;;;;510097;29;2025;-84
2022/08/01 05:49:24;;;;;;;2.00;1.50;;;;;;;;;;512565;29;920;-84
2022/08/01 05:49:39;;;;;;;2.20;1.50;;;;;;;;;;512265;29;2228;-84
2022/08/01 05:49:55;;;;;;;1.88;1.40;;;;;;;;;;512357;29;2178;-84
2022/08/01 05:50:10;;;;;;;1.53;1.30;;;;;;;;;;512552;28;2044;-84
2022/08/01 05:50:26;;;;;;;2.70;1.20;;;;;;;;;;512861;28;1932;-84
2022/08/01 05:50:41;;;;;;;2.73;1.13;;;;;;;;;;514474;28;1062;-84
2022/08/01 05:50:57;;;;;;;2.10;1.30;;;;;;;;;;514118;28;2074;-84
2022/08/01 05:51:12;;;;;;;1.83;1.30;;;;;;;;;;511953;29;1941;-84
2022/08/01 05:51:28;;;;;;;1.63;1.10;;;;;;;;;;511900;29;2164;-84
2022/08/01 05:51:43;;;;;;;2.43;1.10;;;;;;;;;;508649;29;1328;-84
2022/08/01 05:52:00;;;;;;;2.40;1.20;;;;;;;;;;509742;29;1930;-84
2022/08/01 05:52:16;;;;;;;2.20;1.20;;;;;;;;;;510325;29;2013;-84
2022/08/01 05:52:31;;;;;;;2.07;1.10;;;;;;;;;;507545;29;1334;-84
2022/08/01 05:52:47;;;;;;;2.37;1.10;;;;;;;;;;509799;29;1874;-84
2022/08/01 05:53:02;;;;;;;3.47;1.17;;;;;;;;;;508392;29;920;-84
2022/08/01 05:53:17;;;;;;;2.43;1.10;;;;;;;;;;508311;29;913;-84
2022/08/01 05:53:34;;;;;;;1.95;1.10;;;;;;;;;;508471;29;2160;-84
2022/08/01 05:53:49;;;;;;;2.60;1.10;;;;;;;;;;507471;29;2048;-84
2022/08/01 05:54:05;;;;;;;1.75;1.10;;;;;;;;;;508442;29;1233;-84
2022/08/01 05:54:20;;;;;;;2.23;1.20;;;;;;;;;;508724;29;1388;-85
2022/08/01 05:54:35;;;;;;;2.70;1.20;;;;;;;;;;510336;29;1986;-85
2022/08/01 05:54:51;;;;;;;2.28;1.20;;;;;;;;;;510202;29;2088;-85
2022/08/01 05:55:07;;;;;;;2.53;1.30;;;;;;;;;;510189;29;2124;-84
2022/08/01 05:55:22;;;;;;;2.50;1.23;;;;;;;;;;510278;29;1382;-84
2022/08/01 05:55:38;;;;;;;2.20;1.20;;;;;;;;;;512384;29;1166;-84
2022/08/01 05:55:53;;;;;;;2.60;1.27;;;;;;;;;;512206;29;2016;-84
2022/08/01 05:56:09;;;;;;;2.45;1.27;;;;;;;;;;512194;29;1888;-84
2022/08/01 05:56:24;;;;;;;2.10;1.13;;;;;;;;;;510334;29;1173;-84
2022/08/01 05:56:40;;;;;;;3.05;1.20;;;;;;;;;;510446;29;2032;-84
2022/08/01 05:56:59;;;;;;;3.10;1.30;;;;;;;;;;512131;29;1984;-85
2022/08/01 05:57:14;;;;;;;2.95;1.35;;;;;;;;;;512183;29;2118;-84
2022/08/01 05:57:30;;;;;;;2.60;1.40;;;;;;;;;;512826;28;2114;-84
2022/08/01 05:57:45;;;;;;;1.98;1.30;;;;;;;;;;511904;29;1285;-83
2022/08/01 05:58:01;;;;;;;2.27;1.20;;;;;;;;;;512336;29;2027;-83
2022/08/01 05:58:17;;;;;;;2.92;1.20;;;;;;;;;;510275;29;2025;-84
2022/08/01 05:58:32;;;;;;;2.50;1.10;;;;;;;;;;512196;29;2039;-84
2022/08/01 05:58:49;;;;;;;1.97;1.00;;;;;;;;;;510303;29;2040;-84
2022/08/01 05:59:04;;;;;;;1.73;1.05;;;;;;;;;;508235;29;1379;-84
2022/08/01 05:59:20;;;;;;;2.93;1.20;;;;;;;;;;508381;29;2168;-83
2022/08/01 05:59:35;;;;;;;2.70;1.13;;;;;;;;;;506517;29;2007;-84
2022/08/01 05:59:51;;;;;;;2.20;1.10;;;;;;;;;;507089;29;2038;-85
2022/08/01 06:00:07;;;;;;;2.88;1.10;;;;;;;;;;508271;29;1998;-85
2022/08/01 06:00:22;;;;;;;2.47;1.15;;;;;;;;;;508495;29;1332;-84
2022/08/01 06:00:38;;;;;;;2.70;1.20;;;;;;;;;;508307;29;2017;-84
2022/08/01 06:00:54;;;;;;;2.80;1.20;;;;;;;;;;511994;29;2082;-85
2022/08/01 06:01:09;;;;;;;2.50;1.10;;;;;;;;;;510085;29;1874;-84
2022/08/01 06:01:25;;;;;;;2.50;1.17;;;;;;;;;;508054;29;1183;-84
2022/08/01 06:01:40;;;;;;;2.08;1.10;;;;;;;;;;508389;29;2108;-84
2022/08/01 06:01:56;;;;;;;2.33;1.10;;;;;;;;;;508516;29;1886;-83
2022/08/01 06:02:11;;;;;;;2.17;1.10;;;;;;;;;;510332;29;2036;-83
2022/08/01 06:02:27;;;;;;;2.50;1.23;;;;;;;;;;508243;29;2140;-84
2022/08/01 06:02:43;;;;;;;3.20;1.27;;;;;;;;;;507823;29;1194;-83
2022/08/01 06:02:58;;;;;;;2.50;1.10;;;;;;;;;;506195;29;1353;-84
2022/08/01 06:03:14;;;;;;;2.08;1.10;;;;;;;;;;508295;29;968;-85
2022/08/01 06:03:31;;;;;;;1.88;1.17;;;;;;;;;;512411;29;1193;-84
2022/08/01 06:03:46;;;;;;;3.20;1.20;;;;;;;;;;511435;28;1846;-84
2022/08/01 06:04:01;;;;;;;3.10;1.13;;;;;;;;;;513790;28;1301;-86
2022/08/01 06:04:17;;;;;;;3.37;1.10;;;;;;;;;;512054;29;2008;-88
2022/08/01 06:04:32;;;;;;;3.28;1.20;;;;;;;;;;511513;29;2178;-87
2022/08/01 06:04:48;;;;;;;1.87;1.20;;;;;;;;;;510864;29;2142;-86
2022/08/01 06:05:03;;;;;;;2.13;1.20;;;;;;;;;;512594;29;1163;-86
2022/08/01 06:05:19;;;;;;;2.55;1.30;;;;;;;;;;514142;28;1239;-86
2022/08/01 06:05:34;;;;;;;3.37;1.40;;;;;;;;;;512539;29;2063;-86
2022/08/01 06:05:51;;;;;;;2.63;1.30;;;;;;;;;;511568;28;1967;-86
2022/08/01 06:06:06;;;;;;;2.20;1.20;;;;;;;;;;510078;29;2033;-86
2022/08/01 06:06:22;;;;;;;3.57;1.30;;;;;;;;;;507424;29;1460;-87
2022/08/01 06:06:37;;;;;;;3.40;1.23;;;;;;;;;;508176;29;2038;-86
2022/08/01 06:06:53;;;;;;;3.03;1.40;;;;;;;;;;506403;29;1852;-86
2022/08/01 06:07:08;;;;;;;2.77;1.33;;;;;;;;;;506964;29;2029;-86
2022/08/01 06:07:23;;;;;;;2.10;1.20;;;;;;;;;;508886;29;830;-86
2022/08/01 06:07:40;;;;;;;2.08;1.30;;;;;;;;;;508490;29;1389;-86
2022/08/01 06:07:55;;;;;;;2.05;1.30;;;;;;;;;;506361;29;1336;-87
2022/08/01 06:08:10;;;;;;;1.83;1.30;;;;;;;;;;506686;29;1273;-87
2022/08/01 06:08:26;;;;;;;2.30;1.30;;;;;;;;;;509771;29;1339;-86
2022/08/01 06:08:42;;;;;;;2.70;1.30;;;;;;;;;;508362;29;1308;-87
2022/08/01 06:08:57;;;;;;;2.90;1.40;;;;;;;;;;508263;29;2068;-86
2022/08/01 06:09:12;;;;;;;2.60;1.37;;;;;;;;;;508358;29;1862;-87
2022/08/01 06:09:28;;;;;;;1.67;1.20;;;;;;;;;;510154;29;1922;-87
2022/08/01 06:09:44;;;;;;;2.05;1.20;;;;;;;;;;508395;29;1177;-87
2022/08/01 06:09:59;;;;;;;2.53;1.20;;;;;;;;;;510004;29;2022;-86
2022/08/01 06:10:15;;;;;;;2.90;1.40;;;;;;;;;;510227;29;2075;-86
2022/08/01 06:10:30;;;;;;;3.10;1.60;;;;;;;;;;508970;29;2085;-86
2022/08/01 06:10:48;;;;;;;2.50;1.60;;;;;;;;;;508743;29;1317;-85
2022/08/01 06:11:04;;;;;;;2.83;1.60;;;;;;;;;;508361;29;1320;-86
2022/08/01 06:11:20;;;;;;;2.95;1.50;;;;;;;;;;510276;29;2012;-86
2022/08/01 06:11:36;;;;;;;2.60;1.33;;;;;;;;;;509843;29;2128;-86
2022/08/01 06:11:51;;;;;;;3.03;1.35;;;;;;;;;;508968;29;2103;-86
2022/08/01 06:12:06;;;;;;;2.73;1.40;;;;;;;;;;508173;29;2148;-85
2022/08/01 06:12:22;;;;;;;2.33;1.48;;;;;;;;;;508213;29;1288;-87
2022/08/01 06:12:37;;;;;;;1.73;1.30;;;;;;;;;;507732;29;2132;-87
2022/08/01 06:12:53;;;;;;;1.92;1.30;;;;;;;;;;506362;29;1215;-87
2022/08/01 06:13:08;;;;;;;1.90;1.30;;;;;;;;;;506524;29;2017;-86
2022/08/01 06:13:24;;;;;;;1.47;1.30;;;;;;;;;;508213;29;1158;-86
2022/08/01 06:13:39;;;;;;;2.38;1.30;;;;;;;;;;508415;29;2025;-86
2022/08/01 06:13:55;;;;;;;3.90;1.40;;;;;;;;;;510243;29;2054;-86
2022/08/01 06:14:10;;;;;;;4.03;1.50;;;;;;;;;;509254;29;1394;-86
2022/08/01 06:14:26;;;;;;;3.90;1.57;;;;;;;;;;508496;29;1166;-86
2022/08/01 06:14:41;;;;;;;2.83;1.55;;;;;;;;;;508252;29;1309;-86
2022/08/01 06:14:57;;;;;;;2.20;1.50;;;;;;;;;;506319;29;1995;-87
2022/08/01 06:15:13;;;;;;;2.33;1.50;;;;;;;;;;507430;29;2029;-86
2022/08/01 06:15:29;;;;;;;3.17;1.40;;;;;;;;;;506463;29;1216;-87
2022/08/01 06:15:45;;;;;;;2.95;1.40;;;;;;;;;;510980;29;1434;-87
2022/08/01 06:16:00;;;;;;;2.00;1.42;;;;;;;;;;510504;29;1201;-87
2022/08/01 06:16:16;;;;;;;2.33;1.40;;;;;;;;;;510313;29;908;-86
2022/08/01 06:16:32;;;;;;;2.67;1.35;;;;;;;;;;510075;29;1929;-86
2022/08/01 06:16:47;;;;;;;2.72;1.40;;;;;;;;;;510603;29;1993;-87
2022/08/01 06:17:02;;;;;;;3.40;1.60;;;;;;;;;;510340;29;1181;-87
2022/08/01 06:17:18;;;;;;;3.30;1.50;;;;;;;;;;509437;29;1994;-87
2022/08/01 06:17:33;;;;;;;2.03;1.40;;;;;;;;;;509464;29;1370;-87
2022/08/01 06:17:48;;;;;;;2.23;1.30;;;;;;;;;;508904;29;2131;-87
2022/08/01 06:18:04;;;;;;;2.20;1.30;;;;;;;;;;512554;29;1197;-86
2022/08/01 06:18:20;;;;;;;2.15;1.40;;;;;;;;;;510379;29;1864;-87
2022/08/01 06:18:35;;;;;;;2.50;1.40;;;;;;;;;;511542;29;2056;-87
2022/08/01 06:18:51;;;;;;;3.43;1.40;;;;;;;;;;509653;29;1902;-87
2022/08/01 06:19:06;;;;;;;4.10;1.50;;;;;;;;;;508651;29;936;-87
2022/08/01 06:19:21;;;;;;;3.20;1.53;;;;;;;;;;508353;29;1194;-87
2022/08/01 06:19:37;;;;;;;3.20;1.60;;;;;;;;;;508297;29;2054;-87
2022/08/01 06:19:52;;;;;;;2.65;1.42;;;;;;;;;;507597;29;2030;-86
2022/08/01 06:20:08;;;;;;;2.00;1.30;;;;;;;;;;508103;29;1986;-87
2022/08/01 06:20:24;;;;;;;1.95;1.50;;;;;;;;;;506403;29;1343;-86
2022/08/01 06:20:39;;;;;;;2.20;1.57;;;;;;;;;;506704;29;2026;-87
2022/08/01 06:20:54;;;;;;;2.15;1.50;;;;;;;;;;508148;29;2076;-85
2022/08/01 06:21:10;;;;;;;2.40;1.47;;;;;;;;;;508522;29;2112;-86
2022/08/01 06:21:26;;;;;;;3.38;1.38;;;;;;;;;;508697;29;1286;-86
2022/08/01 06:21:41;;;;;;;3.17;1.30;;;;;;;;;;507524;29;1914;-86
2022/08/01 06:21:56;;;;;;;2.35;1.35;;;;;;;;;;510165;29;2028;-86
2022/08/01 06:22:12;;;;;;;1.97;1.40;;;;;;;;;;510291;29;826;-86
2022/08/01 06:22:27;;;;;;;2.50;1.50;;;;;;;;;;512676;28;2024;-86
2022/08/01 06:22:43;;;;;;;2.78;1.60;;;;;;;;;;510245;29;1449;-86
2022/08/01 06:22:58;;;;;;;3.10;1.67;;;;;;;;;;511727;29;2146;-87
2022/08/01 06:23:16;;;;;;;2.42;1.60;;;;;;;;;;508391;29;1243;-86
2022/08/01 06:23:32;;;;;;;2.05;1.40;;;;;;;;;;504290;29;2118;-85
2022/08/01 06:23:47;;;;;;;3.00;1.40;;;;;;;;;;506223;29;1995;-87
2022/08/01 06:24:03;;;;;;;2.77;1.40;;;;;;;;;;507671;29;1277;-87
2022/08/01 06:24:18;;;;;;;1.98;1.50;;;;;;;;;;508359;29;2131;-87
2022/08/01 06:24:33;;;;;;;2.30;1.60;;;;;;;;;;510295;29;1289;-87
2022/08/01 06:24:49;;;;;;;2.28;1.60;;;;;;;;;;510181;29;1918;-86
2022/08/01 06:25:05;;;;;;;2.30;1.60;;;;;;;;;;510372;29;1377;-86
2022/08/01 06:25:20;;;;;;;5.05;1.65;;;;;;;;;;509853;29;2163;-86
2022/08/01 06:25:36;;;;;;;5.22;1.58;;;;;;;;;;508957;29;963;-86
2022/08/01 06:25:54;;;;;;;2.70;1.60;;;;;;;;;;506622;29;1171;-87
2022/08/01 06:26:10;;;;;;;2.65;1.60;;;;;;;;;;506512;29;2065;-86
2022/08/01 06:26:25;;;;;;;3.60;1.80;;;;;;;;;;507951;29;857;-87
2022/08/01 06:26:40;;;;;;;3.93;1.80;;;;;;;;;;506146;29;2046;-88
2022/08/01 06:26:56;;;;;;;3.35;1.80;;;;;;;;;;504297;29;1167;-87
2022/08/01 06:27:11;;;;;;;3.43;1.80;;;;;;;;;;504884;29;1619;-87
2022/08/01 06:27:26;;;;;;;3.65;1.90;;;;;;;;;;506416;29;814;-87
2022/08/01 06:27:42;;;;;;;3.93;2.10;;;;;;;;;;505046;29;1148;-86
2022/08/01 06:27:57;;;;;;;3.70;2.20;;;;;;;;;;505802;29;2066;-86
2022/08/01 06:28:13;;;;;;;3.17;2.20;;;;;;;;;;508185;29;1259;-87
2022/08/01 06:28:29;;;;;;;3.33;2.10;;;;;;;;;;506344;29;1838;-87
2022/08/01 06:28:44;;;;;;;4.22;2.33;;;;;;;;;;510110;29;1495;-88
2022/08/01 06:28:59;;;;;;;4.33;2.70;;;;;;;;;;507812;29;1868;-87
2022/08/01 06:29:15;;;;;;;4.45;2.70;;;;;;;;;;505283;29;2082;-87
2022/08/01 06:29:32;;;;;;;4.37;2.67;;;;;;;;;;508352;29;1934;-87
2022/08/01 06:29:48;;;;;;;3.83;2.75;;;;;;;;;;509568;29;1772;-87
2022/08/01 06:30:05;;;;;;;3.55;2.70;;;;;;;;;;508406;29;1295;-86
2022/08/01 06:30:20;;;;;;;3.45;2.80;;;;;;;;;;504147;29;2051;-86
2022/08/01 06:30:36;;;;;;;4.53;3.00;;;;;;;;;;506615;29;1990;-87
2022/08/01 06:30:51;;;;;;;4.73;3.00;;;;;;;;;;510358;29;1186;-87
2022/08/01 06:31:07;;;;;;;3.63;2.70;;;;;;;;;;506381;29;1995;-87
2022/08/01 06:31:22;;;;;;;3.40;2.43;;;;;;;;;;506887;29;864;-83
2022/08/01 06:31:38;;;;;;;3.70;2.37;;;;;;;;;;507090;29;1253;-82
2022/08/01 06:31:53;;;;;;;4.78;2.40;;;;;;;;;;509906;29;1423;-82
2022/08/01 06:32:09;;;;;;;4.57;2.40;;;;;;;;;;512442;29;1960;-82
2022/08/01 06:32:26;;;;;;;5.15;2.45;;;;;;;;;;510648;29;1336;-81
2022/08/01 06:32:41;;;;;;;5.25;2.50;;;;;;;;;;510620;29;2118;-81
2022/08/01 06:32:58;;;;;;;3.53;2.27;;;;;;;;;;508762;29;1276;-83
2022/08/01 06:33:13;;;;;;;3.63;2.08;;;;;;;;;;508322;29;2051;-85
2022/08/01 06:33:29;;;;;;;3.30;2.00;;;;;;;;;;510333;29;1981;-86
2022/08/01 06:33:44;;;;;;;3.47;2.00;;;;;;;;;;509595;29;1332;-86
2022/08/01 06:34:00;;;;;;;4.30;2.20;;;;;;;;;;507894;29;2010;-85
2022/08/01 06:34:15;;;;;;;4.38;2.30;;;;;;;;;;506212;29;2019;-86
2022/08/01 06:34:30;;;;;;;4.73;2.30;;;;;;;;;;506195;29;2141;-85
2022/08/01 06:34:46;;;;;;;4.43;2.47;;;;;;;;;;504457;29;1374;-85
2022/08/01 06:35:01;;;;;;;4.10;2.35;;;;;;;;;;506172;29;2043;-85
2022/08/01 06:35:17;;;;;;;3.57;2.00;;;;;;;;;;510320;29;2067;-85
2022/08/01 06:35:32;;;;;;;3.20;2.00;;;;;;;;;;510313;29;1886;-85
2022/08/01 06:35:47;;;;;;;2.73;2.10;;;;;;;;;;510473;29;1324;-85
2022/08/01 06:36:03;;;;;;;3.47;2.10;;;;;;;;;;512355;29;1312;-85
2022/08/01 06:36:19;;;;;;;4.03;2.10;;;;;;;;;;510731;29;1861;-87
2022/08/01 06:36:34;;;;;;;4.03;2.08;;;;;;;;;;508401;29;1198;-87
2022/08/01 06:36:49;;;;;;;4.30;2.10;;;;;;;;;;510069;29;2028;-86
2022/08/01 06:37:05;;;;;;;3.40;2.00;;;;;;;;;;508128;29;1261;-86
2022/08/01 06:37:21;;;;;;;3.67;2.05;;;;;;;;;;510158;29;2033;-86
2022/08/01 06:37:36;;;;;;;4.15;2.22;;;;;;;;;;512259;29;1320;-86
2022/08/01 06:37:52;;;;;;;3.73;2.50;;;;;;;;;;508375;29;1320;-87
2022/08/01 06:38:07;;;;;;;4.32;2.50;;;;;;;;;;510294;29;2068;-87
2022/08/01 06:38:24;;;;;;;3.80;2.23;;;;;;;;;;508317;29;1315;-86
2022/08/01 06:38:39;;;;;;;3.20;2.08;;;;;;;;;;510245;29;1482;-86
2022/08/01 06:38:54;;;;;;;5.43;2.25;;;;;;;;;;510541;29;798;-87
2022/08/01 06:39:10;;;;;;;5.67;2.73;;;;;;;;;;508218;29;2105;-87
2022/08/01 06:39:25;;;;;;;3.75;3.05;;;;;;;;;;508541;29;1378;-87
2022/08/01 06:39:41;;;;;;;3.60;3.17;;;;;;;;;;508533;29;2084;-86
2022/08/01 06:40:04;;;;;;;3.95;3.10;;;;;;;;;;508368;29;1321;-86
2022/08/01 06:40:19;;;;;;;4.97;3.00;;;;;;;;;;510692;29;2135;-85
2022/08/01 06:40:35;;;;;;;4.30;2.93;;;;;;;;;;514250;28;2015;-85
2022/08/01 06:40:50;;;;;;;3.97;3.05;;;;;;;;;;516262;28;1301;-85
2022/08/01 06:41:06;;;;;;;3.47;2.73;;;;;;;;;;510885;29;1290;-83
2022/08/01 06:41:21;;;;;;;4.63;2.77;;;;;;;;;;510776;29;861;-83
2022/08/01 06:41:36;;;;;;;4.68;3.10;;;;;;;;;;508867;29;1240;-82
2022/08/01 06:41:52;;;;;;;3.70;3.10;;;;;;;;;;508904;29;1210;-82
2022/08/01 06:42:09;;;;;;;4.70;3.10;;;;;;;;;;511017;29;1165;-82
2022/08/01 06:42:24;;;;;;;4.90;3.25;;;;;;;;;;512613;29;1329;-82
2022/08/01 06:42:40;;;;;;;5.90;3.28;;;;;;;;;;513369;28;820;-82
2022/08/01 06:42:55;;;;;;;6.00;3.20;;;;;;;;;;512896;29;1221;-82